Time;durP1;ratioP1;P1;durP2;ratioP2;P2;SDS_P1;SDS_P2;PMS_P1;PMS_P2;Temp;Humidity;BMP_temperature;BMP_pressure;BME280_temperature;BME280_humidity;BME280_pressure;Samples;Min_cycle;Max_cycle;Signal;HPM_P1;HPM_P2
2021/06/21 00:00:12;;;;;;;6.40;4.70;;;19.20;99.90;;;18.09;86.02;100132.72;3529068;39;103120;-40
2021/06/21 00:02:41;;;;;;;7.80;5.13;;;19.30;99.90;;;18.11;86.48;100129.69;3529347;39;102448;-40
2021/06/21 00:05:13;;;;;;;6.70;4.90;;;19.30;99.90;;;18.14;87.31;100128.28;3529070;39;103031;-40
2021/06/21 00:07:41;;;;;;;7.57;5.68;;;19.30;99.90;;;18.14;87.79;100134.63;3529028;39;102464;-40
2021/06/21 00:10:12;;;;;;;8.57;6.30;;;19.30;99.90;;;18.19;87.50;100126.34;3528859;39;102187;-40
2021/06/21 00:12:41;;;;;;;7.63;5.65;;;19.30;99.90;;;18.24;87.63;100131.03;3529224;39;102693;-40
2021/06/21 00:15:12;;;;;;;9.93;6.47;;;19.40;99.90;;;18.20;87.87;100127.97;3529313;39;103387;-41
2021/06/21 00:17:40;;;;;;;10.43;6.45;;;19.40;99.90;;;18.24;88.12;100125.50;3529265;39;102343;-40
2021/06/21 00:20:10;;;;;;;8.55;6.70;;;19.40;99.90;;;18.14;88.33;100118.06;3528527;39;102330;-40
2021/06/21 00:22:38;;;;;;;9.82;6.82;;;19.30;99.90;;;18.21;88.93;100124.13;3529243;39;102396;-40
2021/06/21 00:25:07;;;;;;;10.40;7.70;;;19.30;99.90;;;18.21;88.84;100107.56;3528325;39;102129;-40
2021/06/21 00:27:34;;;;;;;8.70;6.43;;;19.40;99.90;;;18.22;88.99;100114.72;3529089;39;102349;-40
2021/06/21 00:30:05;;;;;;;9.18;7.55;;;19.40;99.90;;;18.30;89.67;100120.75;3519950;39;103321;-40
2021/06/21 00:32:32;;;;;;;10.48;7.28;;;19.40;99.90;;;18.30;89.53;100118.00;3529276;39;102471;-40
2021/06/21 00:35:00;;;;;;;9.05;7.65;;;19.40;99.90;;;18.34;89.58;100105.31;3528354;39;102556;-40
2021/06/21 00:37:27;;;;;;;9.88;7.55;;;19.50;99.90;;;18.33;88.91;100112.75;3653391;22;103187;-41
2021/06/21 00:39:58;;;;;;;9.98;7.95;;;19.50;99.90;;;18.33;89.57;100103.66;3517788;39;103152;-40
2021/06/21 00:42:26;;;;;;;10.90;9.13;;;19.50;99.90;;;18.34;89.86;100105.31;3519518;39;102376;-41
2021/06/21 00:44:53;;;;;;;;;;;19.50;99.90;;;18.32;90.29;100094.53;3519655;39;102340;-43
2021/06/21 00:47:21;;;;;;;12.80;10.82;;;19.40;99.90;;;18.30;90.46;100093.16;3516200;40;102451;-41
2021/06/21 00:49:48;;;;;;;14.68;12.68;;;19.40;99.90;;;18.33;90.71;100081.56;3508831;40;102145;-41
2021/06/21 00:52:18;;;;;;;17.77;14.00;;;19.50;99.90;;;18.31;91.03;100075.50;3508974;40;102436;-44
2021/06/21 00:54:45;;;;;;;16.85;14.15;;;19.40;99.90;;;18.35;91.64;100071.06;3509289;40;102193;-41
2021/06/21 00:57:13;;;;;;;19.10;16.25;;;19.50;99.90;;;18.32;91.90;100077.16;3509182;40;103910;-41
2021/06/21 00:59:41;;;;;;;20.40;17.13;;;19.50;99.90;;;18.31;92.26;100070.00;3509837;40;106093;-41
2021/06/21 01:02:11;;;;;;;21.70;17.05;;;19.40;99.90;;;18.30;92.50;100065.53;3510762;40;102360;-41
2021/06/21 01:04:38;;;;;;;19.80;16.58;;;19.50;99.90;;;18.33;92.44;100062.25;3510264;40;103224;-41
2021/06/21 01:07:05;;;;;;;20.85;16.92;;;19.50;99.90;;;18.32;92.40;100060.59;3510222;40;102492;-40
2021/06/21 01:09:33;;;;;;;18.95;16.00;;;19.50;99.90;;;18.33;92.67;100048.44;3510865;40;103470;-41
2021/06/21 01:12:13;;;;;;;18.95;15.48;;;19.50;99.90;;;18.32;92.75;100049.56;3510701;40;103701;-45
2021/06/21 01:14:49;;;;;;;20.23;16.50;;;19.50;99.90;;;18.34;92.88;100039.06;3510927;40;102317;-41
2021/06/21 01:17:34;;;;;;;20.95;16.45;;;19.50;99.90;;;18.32;92.80;100033.81;3510603;40;102356;-44
2021/06/21 01:20:32;;;;;;;18.40;15.05;;;19.50;99.90;;;18.34;93.26;100033.53;3510922;40;102353;-41
2021/06/21 01:23:09;;;;;;;18.88;15.73;;;19.50;99.90;;;18.38;93.53;100032.66;3510975;40;102370;-42
2021/06/21 01:25:51;;;;;;;20.00;16.02;;;19.50;99.90;;;18.36;93.03;100034.88;3510159;40;102759;-41
2021/06/21 01:29:04;;;;;;;18.95;15.48;;;19.50;99.90;;;18.34;92.95;100026.06;3510965;39;102713;-41
2021/06/21 01:32:04;;;;;;;20.02;16.35;;;19.50;99.90;;;18.33;93.24;100027.16;3510758;40;104212;-44
2021/06/21 01:34:33;;;;;;;20.63;16.27;;;19.50;99.90;;;18.35;93.18;100021.38;3510655;40;102521;-41
2021/06/21 01:37:04;;;;;;;20.48;16.73;;;19.50;99.90;;;18.30;93.49;100010.34;3510293;40;104268;-41
2021/06/21 01:39:35;;;;;;;21.50;16.90;;;19.50;99.90;;;18.32;93.50;100016.44;3510834;40;103296;-41
2021/06/21 01:42:14;;;;;;;20.75;17.38;;;19.50;99.90;;;18.29;93.67;100023.31;3510420;40;102256;-42
2021/06/21 01:45:05;;;;;;;20.88;16.67;;;19.40;99.90;;;18.29;93.13;100028.00;3510566;40;102432;-41
2021/06/21 01:47:35;;;;;;;19.75;16.70;;;19.40;99.90;;;18.26;93.72;100038.50;3510020;40;102826;-44
2021/06/21 01:50:08;;;;;;;18.33;16.02;;;19.40;99.90;;;18.30;94.06;100046.22;3511053;40;103278;-43
2021/06/21 01:52:40;;;;;;;19.70;16.27;;;19.40;99.90;;;18.23;94.13;100036.31;3510806;40;103224;-41
2021/06/21 01:55:12;;;;;;;20.13;16.52;;;19.40;99.90;;;18.23;93.70;100039.09;3510339;40;103220;-41
2021/06/21 01:57:46;;;;;;;19.25;15.32;;;19.40;99.90;;;18.21;93.95;100030.25;3510507;40;103131;-40
2021/06/21 02:00:15;;;;;;;18.50;15.48;;;19.30;99.90;;;18.19;94.39;100021.44;3510703;40;102121;-41
2021/06/21 02:02:45;;;;;;;18.27;15.10;;;19.30;99.90;;;18.15;94.38;100009.31;3511224;39;102263;-41
2021/06/21 02:05:15;;;;;;;18.95;15.85;;;19.30;99.90;;;18.07;94.61;100010.72;3510161;40;102299;-41
2021/06/21 02:07:47;;;;;;;18.83;15.50;;;19.30;99.90;;;17.97;94.93;100002.47;3509981;40;102228;-42
2021/06/21 02:10:18;;;;;;;17.48;14.13;;;19.20;99.90;;;17.96;95.33;100004.38;3510032;40;102344;-41
2021/06/21 02:12:48;;;;;;;18.90;14.70;;;19.10;99.90;;;18.00;95.95;100001.91;3510596;40;102240;-43
2021/06/21 02:15:16;;;;;;;17.20;14.38;;;19.20;99.90;;;17.98;95.87;100001.38;3509224;40;104448;-40
2021/06/21 02:17:45;;;;;;;15.65;12.85;;;19.10;99.90;;;17.91;95.90;100004.41;3510246;40;103085;-41
2021/06/21 02:20:16;;;;;;;13.48;10.13;;;19.10;99.90;;;17.91;96.21;100000.84;3510381;40;102369;-41
2021/06/21 02:22:46;;;;;;;11.07;9.13;;;19.10;99.90;;;17.86;96.08;99998.91;3509971;40;102361;-41
2021/06/21 02:25:15;;;;;;;12.88;9.90;;;19.10;99.90;;;17.79;96.38;100003.94;3509879;40;102458;-41
2021/06/21 02:27:44;;;;;;;10.38;9.25;;;18.90;99.90;;;17.71;96.93;100005.31;3509820;40;103325;-41
2021/06/21 02:30:15;;;;;;;12.15;9.57;;;18.90;99.90;;;17.71;97.49;100005.31;3510915;39;102302;-40
2021/06/21 02:32:46;;;;;;;11.60;8.80;;;18.90;99.90;;;17.72;96.98;100006.13;3510080;40;102425;-41
2021/06/21 02:35:16;;;;;;;9.45;8.27;;;18.90;99.90;;;17.61;96.99;100005.31;3510112;40;102358;-41
2021/06/21 02:37:45;;;;;;;10.60;8.75;;;18.80;99.90;;;17.62;97.17;100012.50;3510327;40;102342;-41
2021/06/21 02:40:15;;;;;;;9.27;8.27;;;18.80;99.90;;;17.65;97.00;100017.47;3510068;40;103493;-40
2021/06/21 02:42:43;;;;;;;10.38;8.57;;;18.90;99.90;;;17.71;96.62;100019.13;3511056;39;103146;-40
2021/06/21 02:45:12;;;;;;;10.30;9.20;;;18.90;99.90;;;17.70;96.62;100014.69;3510245;40;102571;-41
2021/06/21 02:47:43;;;;;;;11.55;9.90;;;18.90;99.90;;;17.73;96.67;100016.91;3510119;40;103321;-41
2021/06/21 02:50:13;;;;;;;10.73;9.50;;;18.90;99.90;;;17.69;96.86;100005.59;3510933;39;102316;-41
2021/06/21 02:53:08;;;;;;;12.27;10.23;;;18.90;99.90;;;17.66;97.45;100002.59;3510366;40;103249;-41
2021/06/21 02:55:52;;;;;;;11.60;9.32;;;18.90;99.90;;;17.62;96.97;100007.81;3509682;40;103473;-41
2021/06/21 02:58:31;;;;;;;9.98;8.57;;;18.80;99.90;;;17.52;96.79;100002.34;3510367;40;103176;-41
2021/06/21 03:01:05;;;;;;;9.48;8.35;;;18.80;99.90;;;17.58;96.82;100001.22;3510011;40;102371;-41
2021/06/21 03:03:39;;;;;;;9.38;7.72;;;18.80;99.90;;;17.58;96.80;100006.72;3510533;39;102629;-41
2021/06/21 03:06:09;;;;;;;9.85;8.82;;;18.80;99.90;;;17.60;97.22;100011.94;3509940;40;103300;-41
2021/06/21 03:08:38;;;;;;;9.95;6.05;;;18.80;99.90;;;17.56;96.67;100011.72;3510611;39;103997;-44
2021/06/21 03:11:08;;;;;;;6.60;5.60;;;18.70;99.90;;;17.54;96.70;100005.66;3510162;39;102472;-41
2021/06/21 03:13:38;;;;;;;6.18;4.45;;;18.70;99.90;;;17.59;96.80;100002.03;3510298;40;102314;-41
2021/06/21 03:16:07;;;;;;;5.43;4.00;;;18.80;99.90;;;17.60;96.24;99998.16;3510243;39;102434;-41
2021/06/21 03:18:36;;;;;;;5.70;4.13;;;18.80;99.90;;;17.53;95.63;99996.53;3510002;40;103208;-40
2021/06/21 03:21:04;;;;;;;6.43;4.93;;;18.70;99.90;;;17.50;95.87;100001.78;3510269;40;102293;-41
2021/06/21 03:23:32;;;;;;;;;;;18.70;99.90;;;17.45;95.68;99996.28;3510856;40;102178;-41
2021/06/21 03:26:03;;;;;;;6.80;5.53;;;18.60;99.90;;;17.48;95.98;100001.22;3510081;40;102264;-41
2021/06/21 03:28:32;;;;;;;6.82;6.13;;;18.60;99.90;;;17.49;96.65;100008.38;3510285;40;103173;-41
2021/06/21 03:31:05;;;;;;;7.63;6.88;;;18.70;99.90;;;17.52;96.47;100018.88;3509893;40;104168;-42
2021/06/21 03:33:34;;;;;;;10.00;8.90;;;18.70;99.90;;;17.57;96.37;100032.66;3510204;40;103107;-40
2021/06/21 03:36:04;;;;;;;11.10;9.55;;;18.70;99.90;;;17.59;96.20;100033.19;3510405;39;102344;-40
2021/06/21 03:38:32;;;;;;;9.52;8.32;;;18.70;99.90;;;17.43;94.56;99991.06;3509717;40;103308;-42
2021/06/21 03:41:03;;;;;;;6.97;6.28;;;18.70;99.90;;;17.30;94.39;99951.09;3509719;40;102276;-41
2021/06/21 03:43:33;;;;;;;6.93;6.10;;;18.60;99.90;;;17.21;94.61;99948.09;3509779;40;104105;-41
2021/06/21 03:46:05;;;;;;;7.63;6.82;;;18.50;99.90;;;17.19;94.63;99961.31;3510329;39;102389;-41
2021/06/21 03:48:36;;;;;;;7.55;6.80;;;18.40;99.90;;;17.14;94.73;99971.50;3509986;40;102668;-41
2021/06/21 03:51:05;;;;;;;10.68;7.65;;;18.40;99.90;;;17.12;94.65;99977.31;3509468;40;102263;-41
2021/06/21 03:53:33;;;;;;;12.02;9.70;;;18.30;99.90;;;17.06;94.71;99983.91;3509546;40;103066;-41
2021/06/21 03:56:00;;;;;;;11.02;9.82;;;18.30;99.90;;;17.01;94.85;99976.50;3509338;40;103197;-43
2021/06/21 03:58:29;;;;;;;11.35;10.15;;;18.20;99.90;;;16.96;95.16;99974.53;3508688;40;102234;-41
2021/06/21 04:00:57;;;;;;;12.23;10.85;;;18.20;99.90;;;17.01;95.40;99973.75;3509949;40;102766;-41
2021/06/21 04:03:24;;;;;;;11.63;10.43;;;18.20;99.90;;;16.94;95.35;99962.13;3509649;40;104224;-41
2021/06/21 04:05:52;;;;;;;12.20;10.82;;;18.20;99.90;;;16.88;95.03;99977.84;3509461;40;102476;-41
2021/06/21 04:08:20;;;;;;;12.35;11.00;;;18.10;99.90;;;16.91;95.42;99976.47;3509582;40;102128;-41
2021/06/21 04:10:49;;;;;;;12.85;10.95;;;18.10;99.90;;;16.96;95.55;99976.44;3509437;40;103306;-41
2021/06/21 04:13:18;;;;;;;12.75;11.45;;;18.10;99.90;;;16.93;95.53;99985.28;3509996;40;103091;-41
2021/06/21 04:15:46;;;;;;;12.55;11.00;;;18.10;99.90;;;16.86;95.26;99980.06;3509496;40;103297;-42
2021/06/21 04:18:17;;;;;;;12.63;11.23;;;18.10;99.90;;;16.90;95.39;99994.94;3509410;40;102346;-41
2021/06/21 04:20:47;;;;;;;11.70;9.95;;;18.10;99.90;;;16.85;95.14;99989.44;3509380;40;102423;-41
2021/06/21 04:23:15;;;;;;;11.30;10.10;;;18.10;99.90;;;16.94;95.82;99997.94;3509793;40;103282;-41
2021/06/21 04:25:43;;;;;;;11.60;10.07;;;18.10;99.90;;;16.89;95.33;99995.19;3509244;40;102385;-41
2021/06/21 04:28:11;;;;;;;10.73;9.65;;;18.10;99.90;;;16.95;95.96;99997.69;3509886;39;103669;-41
2021/06/21 04:30:38;;;;;;;;;;;18.10;99.90;;;16.81;95.00;99988.28;3509331;40;104928;-42
2021/06/21 04:33:06;;;;;;;10.40;9.05;;;18.10;99.90;;;16.82;95.08;99996.28;3510840;40;102246;-40
2021/06/21 04:35:34;;;;;;;11.43;9.32;;;18.10;99.90;;;16.78;95.37;99995.19;3510766;39;102383;-41
2021/06/21 04:38:02;;;;;;;11.32;10.13;;;18.00;99.90;;;16.80;95.77;99993.00;3511091;40;102350;-41
2021/06/21 04:40:34;;;;;;;14.10;12.60;;;18.00;99.90;;;16.78;95.93;99994.34;3510575;40;103374;-41
2021/06/21 04:43:02;;;;;;;14.35;12.80;;;18.00;99.90;;;16.74;96.15;99988.59;3510856;40;102437;-41
2021/06/21 04:45:31;;;;;;;14.50;12.68;;;18.00;99.90;;;16.77;95.35;99992.69;3510141;40;102256;-41
2021/06/21 04:48:01;;;;;;;15.05;12.63;;;18.00;99.90;;;16.78;95.22;99999.88;3510548;40;102179;-41
2021/06/21 04:50:30;;;;;;;14.18;12.25;;;17.90;99.90;;;16.71;94.74;99991.91;3510508;40;103730;-42
2021/06/21 04:52:58;;;;;;;14.93;12.43;;;17.90;99.90;;;16.67;94.48;99986.09;3510825;40;102223;-41
2021/06/21 04:55:26;;;;;;;14.45;12.90;;;17.90;99.90;;;16.68;94.27;99995.16;3510410;40;102769;-41
2021/06/21 04:57:53;;;;;;;;;;;17.90;99.90;;;16.64;94.44;99989.41;3511278;40;102325;-42
2021/06/21 05:00:25;;;;;;;13.88;12.27;;;17.90;99.90;;;16.63;94.42;100001.53;3510921;40;102537;-42
2021/06/21 05:02:53;;;;;;;13.27;11.85;;;17.80;99.90;;;16.60;94.21;99992.97;3510890;40;103256;-41
2021/06/21 05:05:21;;;;;;;13.82;12.30;;;17.90;99.90;;;16.62;93.93;100007.28;3510532;40;102307;-41
2021/06/21 05:07:52;;;;;;;13.43;12.02;;;17.80;99.90;;;16.54;93.65;100003.13;3510301;40;102183;-41
2021/06/21 05:10:22;;;;;;;13.60;12.20;;;17.80;99.90;;;16.57;94.65;100004.53;3510655;40;102330;-44
2021/06/21 05:12:50;;;;;;;13.57;12.07;;;17.80;99.90;;;16.53;95.35;100001.47;3510616;40;103356;-41
2021/06/21 05:15:18;;;;;;;16.17;14.05;;;17.70;99.90;;;16.66;95.79;100000.97;3510497;40;102111;-42
2021/06/21 05:17:46;;;;;;;16.73;13.20;;;17.80;99.90;;;16.67;95.01;99999.03;3510861;40;102515;-41
2021/06/21 05:20:14;;;;;;;16.48;14.43;;;17.90;99.90;;;16.56;94.45;99986.34;3510701;40;102586;-41
2021/06/21 05:22:42;;;;;;;16.23;13.57;;;17.80;99.90;;;16.52;93.88;99992.41;3510613;40;102172;-41
2021/06/21 05:25:10;;;;;;;;;;;17.70;99.90;;;16.43;94.26;99991.28;3510965;40;103438;-41
2021/06/21 05:27:38;;;;;;;17.02;14.90;;;17.70;99.90;;;16.51;94.51;99984.41;3510227;40;102429;-41
2021/06/21 05:30:07;;;;;;;17.08;15.23;;;17.70;99.90;;;16.49;94.09;99989.38;3510761;40;102351;-41
2021/06/21 05:32:36;;;;;;;17.00;15.20;;;17.70;99.90;;;16.42;94.13;99991.56;3510674;40;103186;-41
2021/06/21 05:35:06;;;;;;;17.30;14.35;;;17.70;99.90;;;16.44;93.79;99992.94;3510221;40;102312;-40
2021/06/21 05:37:34;;;;;;;16.27;14.55;;;17.60;99.90;;;16.32;93.46;99992.38;3510437;39;102335;-41
2021/06/21 05:40:04;;;;;;;19.13;16.40;;;17.60;99.90;;;16.33;93.53;100000.38;3510591;40;102474;-41
2021/06/21 05:42:31;;;;;;;18.15;15.40;;;17.60;99.90;;;16.22;93.07;100007.75;3516598;40;102252;-41
2021/06/21 05:44:59;;;;;;;17.73;15.63;;;17.50;99.90;;;16.28;93.72;100003.06;3510258;40;102545;-41
2021/06/21 05:47:26;;;;;;;19.35;15.95;;;17.50;99.90;;;16.23;93.46;99998.41;3510178;40;102362;-41
2021/06/21 05:49:54;;;;;;;19.13;15.30;;;17.50;99.90;;;16.21;92.61;100002.50;3510499;40;102166;-41
2021/06/21 05:52:22;;;;;;;19.13;15.82;;;17.40;99.90;;;16.24;92.71;100008.31;3510562;40;102166;-41
2021/06/21 05:54:49;;;;;;;19.10;16.65;;;17.50;99.90;;;16.21;93.08;100005.25;3510182;40;102407;-41
2021/06/21 05:57:17;;;;;;;19.63;15.80;;;17.40;99.90;;;16.20;93.51;100012.72;3510246;40;103260;-41
2021/06/21 05:59:44;;;;;;;20.80;16.73;;;17.40;99.90;;;16.29;94.26;100015.75;3510588;40;102244;-42
2021/06/21 06:02:12;;;;;;;23.98;17.40;;;17.50;99.90;;;16.29;94.33;100017.69;3510697;40;102720;-41
2021/06/21 06:04:39;;;;;;;17.60;15.30;;;17.50;99.90;;;16.32;93.91;100020.72;3510710;39;102431;-41
2021/06/21 06:07:07;;;;;;;21.70;16.63;;;17.50;99.90;;;16.33;94.84;100019.63;3510204;40;102459;-42
2021/06/21 06:09:34;;;;;;;23.80;16.50;;;17.50;99.90;;;16.34;94.87;100014.94;3510186;40;102773;-41
2021/06/21 06:12:02;;;;;;;20.98;16.83;;;17.50;99.90;;;16.34;95.08;100026.78;3510339;40;102187;-40
2021/06/21 06:14:30;;;;;;;;;;;17.50;99.90;;;16.35;95.46;100019.34;3511157;39;102838;-41
2021/06/21 06:16:59;;;;;;;21.40;16.52;;;17.60;99.90;;;16.38;94.98;100016.03;3510834;40;103292;-41
2021/06/21 06:19:26;;;;;;;20.52;15.93;;;17.60;99.90;;;16.45;95.42;100027.66;3510546;40;102394;-41
2021/06/21 06:21:54;;;;;;;21.98;17.10;;;17.60;99.90;;;16.50;93.52;100030.41;3510218;40;103284;-41
2021/06/21 06:24:21;;;;;;;22.10;16.85;;;17.70;99.90;;;16.46;92.28;100034.81;3510340;40;102648;-44
2021/06/21 06:26:49;;;;;;;20.98;16.20;;;17.70;99.90;;;16.46;92.70;100036.72;3509958;40;103443;-41
2021/06/21 06:29:16;;;;;;;22.42;17.45;;;17.70;99.90;;;16.45;93.42;100035.91;3510349;40;102433;-41
2021/06/21 06:31:48;;;;;;;23.75;17.38;;;17.60;99.90;;;16.45;93.43;100040.56;3509914;40;102515;-43
2021/06/21 06:34:16;;;;;;;21.30;16.55;;;17.60;99.90;;;16.41;92.93;100033.94;3509989;40;102331;-41
2021/06/21 06:36:44;;;;;;;20.63;16.27;;;17.70;99.90;;;16.43;92.91;100049.09;3644473;22;104173;-41
2021/06/21 06:39:11;;;;;;;22.00;16.83;;;17.60;99.90;;;16.46;93.46;100054.06;3519271;39;102335;-38
2021/06/21 06:41:39;;;;;;;24.92;17.13;;;17.70;99.90;;;16.50;93.24;100052.44;3520106;40;104183;-40
2021/06/21 06:44:06;;;;;;;;;;;17.70;99.90;;;16.49;93.18;100059.03;3520522;39;103034;-40
2021/06/21 06:46:34;;;;;;;22.25;16.80;;;17.70;99.90;;;16.51;93.51;100062.34;3520106;39;103183;-40
2021/06/21 06:49:03;;;;;;;30.23;20.05;;;17.70;99.90;;;16.53;93.77;100054.63;3519874;40;102252;-40
2021/06/21 06:51:55;;;;;;;33.30;21.48;;;17.70;99.90;;;16.58;93.68;100062.09;3519899;40;103255;-42
2021/06/21 06:54:27;;;;;;;34.67;21.50;;;17.70;99.90;;;16.65;94.41;100064.56;3519405;40;102812;-41
2021/06/21 06:57:03;;;;;;;34.60;21.52;;;17.80;99.90;;;16.67;94.33;100063.22;3519279;39;102289;-40
2021/06/21 06:59:36;;;;;;;30.17;19.27;;;17.80;99.90;;;16.75;94.01;100061.00;3519848;40;103343;-40
2021/06/21 07:02:14;;;;;;;28.50;17.63;;;17.90;99.90;;;16.78;93.48;100066.81;3520120;40;104188;-40
2021/06/21 07:04:42;;;;;;;25.15;15.43;;;17.90;99.90;;;16.78;92.26;100068.72;3519427;40;102401;-41
2021/06/21 07:07:10;;;;;;;24.60;15.20;;;17.90;99.90;;;16.74;91.55;100065.72;3519797;39;103339;-40
2021/06/21 07:09:38;;;;;;;22.08;14.23;;;17.90;99.90;;;16.74;91.73;100073.13;3519493;40;102531;-40
2021/06/21 07:12:06;;;;;;;21.17;14.48;;;17.90;99.90;;;16.70;91.71;100083.03;3520241;39;102178;-40
2021/06/21 07:14:34;;;;;;;21.50;13.90;;;17.90;99.90;;;16.63;91.13;100086.88;3519637;39;102484;-40
2021/06/21 07:17:01;;;;;;;23.13;14.05;;;17.80;99.90;;;16.55;89.88;100092.91;3520039;40;103349;-40
2021/06/21 07:19:29;;;;;;;22.48;14.15;;;17.80;99.90;;;16.53;90.84;100093.19;3519795;39;103568;-39
2021/06/21 07:21:57;;;;;;;28.63;16.75;;;17.70;99.90;;;16.49;91.34;100094.81;3519617;40;102595;-40
2021/06/21 07:24:24;;;;;;;24.10;16.20;;;17.70;99.90;;;16.48;91.53;100095.91;3519914;40;102442;-40
2021/06/21 07:26:52;;;;;;;25.20;15.55;;;17.70;99.90;;;16.47;91.60;100096.19;3520186;40;103454;-40
2021/06/21 07:29:20;;;;;;;;;;;17.70;99.90;;;16.51;91.39;100102.78;3520399;40;102300;-40
2021/06/21 07:31:49;;;;;;;25.95;16.10;;;17.70;99.90;;;16.46;89.96;100102.78;3519529;39;102312;-40
2021/06/21 07:34:17;;;;;;;27.13;15.55;;;17.60;99.90;;;16.46;91.08;100108.28;3519380;39;102729;-40
2021/06/21 07:36:44;;;;;;;25.33;15.32;;;17.60;99.90;;;16.43;91.22;100114.34;3519356;40;102196;-41
2021/06/21 07:39:12;;;;;;;27.55;14.65;;;17.60;99.90;;;16.46;91.17;100113.78;3519248;39;102377;-40
2021/06/21 07:41:40;;;;;;;24.70;14.80;;;17.60;99.90;;;16.43;90.86;100111.59;3519228;40;102147;-41
2021/06/21 07:44:12;;;;;;;25.70;14.27;;;17.60;99.90;;;16.45;90.91;100112.13;3519558;40;103340;-40
2021/06/21 07:46:39;;;;;;;25.60;14.88;;;17.60;99.90;;;16.48;91.45;100114.34;3519334;39;103422;-40
2021/06/21 07:49:07;;;;;;;22.08;13.93;;;17.60;99.90;;;16.50;91.08;100112.16;3519604;40;102837;-40
2021/06/21 07:51:34;;;;;;;21.60;13.52;;;17.70;99.90;;;16.56;91.37;100118.50;3519601;40;103256;-40
2021/06/21 07:54:02;;;;;;;24.02;14.38;;;17.70;99.90;;;16.59;91.27;100112.47;3519507;39;102274;-40
2021/06/21 07:56:30;;;;;;;24.30;14.38;;;17.70;99.90;;;16.62;91.37;100117.44;3519598;40;103080;-40
2021/06/21 07:58:57;;;;;;;24.58;15.15;;;17.80;99.90;;;16.59;89.64;100117.97;3519342;39;102451;-41
2021/06/21 08:01:25;;;;;;;25.10;15.40;;;17.70;99.90;;;16.57;90.21;100120.97;3519512;40;103401;-40
2021/06/21 08:03:55;;;;;;;23.55;13.95;;;17.70;99.90;;;16.57;90.97;100125.69;3519730;40;102921;-39
2021/06/21 08:06:24;;;;;;;19.05;12.55;;;17.70;99.90;;;16.61;91.37;100129.53;3518559;40;102249;-41
2021/06/21 08:08:51;;;;;;;18.45;12.15;;;17.70;99.90;;;16.68;91.54;100127.34;3519297;40;102282;-40
2021/06/21 08:11:19;;;;;;;17.42;11.95;;;17.80;99.90;;;16.67;91.02;100129.28;3519321;40;103264;-40
2021/06/21 08:13:46;;;;;;;16.05;11.23;;;17.80;99.90;;;16.74;90.72;100125.44;3519608;40;102524;-41
2021/06/21 08:16:14;;;;;;;13.23;9.65;;;17.90;99.90;;;16.82;89.96;100124.91;3519153;40;103204;-40
2021/06/21 08:18:41;;;;;;;11.48;8.40;;;17.90;99.90;;;16.87;89.51;100135.97;3518790;40;102421;-40
2021/06/21 08:21:09;;;;;;;13.73;7.78;;;18.00;99.90;;;16.88;89.10;100142.28;3519542;40;102350;-40
2021/06/21 08:23:37;;;;;;;10.98;7.97;;;18.00;99.90;;;16.88;88.13;100136.78;3519061;39;102576;-40
2021/06/21 08:26:04;;;;;;;11.07;7.63;;;18.00;99.90;;;16.89;87.73;100143.94;3518859;40;102292;-38
2021/06/21 08:28:32;;;;;;;9.68;6.50;;;18.00;99.90;;;16.90;87.82;100143.69;3519931;40;102941;-40
2021/06/21 08:31:00;;;;;;;28.02;11.00;;;18.00;99.90;;;16.94;88.43;100143.94;3518883;39;103734;-40
2021/06/21 08:33:27;;;;;;;13.38;6.78;;;18.00;99.90;;;17.00;88.04;100151.19;3519002;40;102144;-42
2021/06/21 08:35:55;;;;;;;20.33;8.95;;;18.10;99.90;;;17.02;87.94;100164.69;3519090;40;103334;-40
2021/06/21 08:38:22;;;;;;;;;;;18.10;99.90;;;17.03;86.47;100174.59;3519558;40;102683;-39
2021/06/21 08:40:50;;;;;;;10.05;5.75;;;18.10;99.90;;;17.05;86.67;100169.63;3519175;39;103304;-40
2021/06/21 08:43:18;;;;;;;6.35;4.85;;;18.10;99.90;;;17.00;86.72;100170.47;3519134;40;102527;-39
2021/06/21 08:45:45;;;;;;;7.85;5.15;;;18.10;99.90;;;17.01;86.35;100174.03;3518849;40;102310;-40
2021/06/21 08:48:13;;;;;;;7.63;4.75;;;18.10;99.90;;;17.06;86.93;100177.66;3519022;40;102526;-40
2021/06/21 08:50:41;;;;;;;7.90;4.78;;;18.20;99.90;;;16.96;85.34;100181.16;3519391;40;102197;-39
2021/06/21 08:53:10;;;;;;;7.70;4.35;;;18.10;99.90;;;16.90;86.21;100174.00;3519456;40;103431;-40
2021/06/21 08:55:38;;;;;;;9.57;4.15;;;18.10;99.90;;;17.06;86.61;100183.16;3518917;40;103215;-40
2021/06/21 08:58:06;;;;;;;;;;;18.20;99.90;;;17.15;86.00;100185.38;3519623;40;102159;-40
2021/06/21 09:00:33;;;;;;;7.95;3.75;;;18.20;99.90;;;17.15;84.64;100196.41;3519665;40;103331;-38
2021/06/21 09:03:03;;;;;;;6.18;3.35;;;18.20;99.90;;;17.17;85.08;100195.03;3518990;39;102207;-40
2021/06/21 09:05:35;;;;;;;4.18;2.47;;;18.20;99.90;;;17.19;84.99;100195.59;3518853;39;102164;-42
2021/06/21 09:08:07;;;;;;;4.93;2.67;;;18.20;99.90;;;17.25;85.30;100194.50;3518928;40;103289;-40
2021/06/21 09:10:40;;;;;;;4.22;2.28;;;18.30;99.90;;;17.25;82.91;100200.00;3518789;40;102268;-39
2021/06/21 09:13:09;;;;;;;5.25;2.63;;;18.30;99.90;;;17.33;84.93;100204.16;3519211;40;102667;-40
2021/06/21 09:15:52;;;;;;;4.35;2.33;;;18.30;99.90;;;17.31;84.03;100209.13;3518872;39;102296;-41
2021/06/21 09:18:33;;;;;;;3.00;1.80;;;18.30;99.90;;;17.30;83.95;100221.25;3519734;40;102429;-39
2021/06/21 09:21:20;;;;;;;2.53;1.35;;;18.40;99.90;;;17.23;85.02;100220.66;3520038;40;102339;-40
2021/06/21 09:24:25;;;;;;;2.20;1.30;;;18.30;99.90;;;17.12;83.20;100225.34;3520058;39;102276;-39
2021/06/21 09:26:58;;;;;;;;;;;18.20;99.90;;;17.16;84.06;100242.16;3520811;39;102284;-40
2021/06/21 09:29:38;;;;;;;2.25;1.00;;;18.20;99.90;;;17.16;84.74;100239.38;3519992;39;102216;-41
2021/06/21 09:32:59;;;;;;;2.38;1.10;;;18.20;99.90;;;17.24;84.91;100245.22;3519992;39;105021;-39
2021/06/21 09:35:29;;;;;;;2.17;1.20;;;18.30;99.90;;;17.33;84.95;100253.78;3512998;40;102476;-40
2021/06/21 09:38:00;;;;;;;3.40;1.00;;;18.30;99.90;;;17.31;83.58;100263.41;3520436;39;102314;-39
2021/06/21 09:40:39;;;;;;;1.00;0.70;;;18.40;99.90;;;17.34;83.42;100269.22;3519882;40;102623;-41
2021/06/21 09:43:31;;;;;;;1.55;0.63;;;18.40;99.90;;;17.38;83.67;100275.84;3520347;40;103227;-40
2021/06/21 09:46:21;;;;;;;1.13;0.60;;;18.40;99.90;;;17.31;82.50;100283.56;3520807;40;102454;-41
2021/06/21 09:48:52;;;;;;;1.23;0.60;;;18.40;99.90;;;17.29;83.14;100293.19;3519952;39;102273;-40
2021/06/21 09:51:36;;;;;;;1.08;0.60;;;18.30;99.90;;;17.27;83.73;100298.97;3520328;40;103231;-40
2021/06/21 09:54:13;;;;;;;0.73;0.50;;;18.40;99.90;;;17.29;83.89;100305.06;3519952;40;103074;-40
2021/06/21 09:56:46;;;;;;;0.30;0.30;;;18.40;99.90;;;17.32;83.96;100306.41;3520131;40;102361;-40
2021/06/21 09:59:29;;;;;;;0.80;0.45;;;18.40;99.90;;;17.37;84.27;100306.44;3519084;40;104339;-39
2021/06/21 10:02:22;;;;;;;0.35;0.30;;;18.40;99.90;;;17.38;83.31;100311.69;3520324;39;102369;-39
2021/06/21 10:04:49;;;;;;;0.98;0.50;;;18.50;99.90;;;17.37;83.18;100325.72;3515906;40;104229;-39
2021/06/21 10:07:38;;;;;;;0.38;0.38;;;18.50;99.90;;;17.42;83.66;100322.16;3520145;40;102147;-39
2021/06/21 10:10:10;;;;;;;0.98;0.45;;;18.50;99.90;;;17.52;84.44;100316.72;3520271;40;103254;-39
2021/06/21 10:12:39;;;;;;;0.70;0.50;;;18.50;99.90;;;17.62;84.11;100316.72;3520077;39;102495;-39
2021/06/21 10:15:10;;;;;;;0.90;0.30;;;18.60;99.90;;;17.71;83.33;100316.16;3519667;40;104241;-40
2021/06/21 10:17:38;;;;;;;0.30;0.30;;;18.70;99.90;;;17.69;82.12;100320.03;3520131;39;102167;-40